Time;durP1;ratioP1;P1;durP2;ratioP2;P2;SDS_P1;SDS_P2;PMS_P1;PMS_P2;Temp;Humidity;BMP_temperature;BMP_pressure;BME280_temperature;BME280_humidity;BME280_pressure;Samples;Min_cycle;Max_cycle;Signal;HPM_P1;HPM_P2
2022/09/19 00:01:26;;;;;;;0.70;0.70;;;9.50;99.90;;;;;;5012410;28;20503;-66
2022/09/19 00:03:56;;;;;;;0.50;0.50;;;9.50;99.90;;;;;;5010095;28;20473;-66
2022/09/19 00:06:23;;;;;;;4.97;0.60;;;9.50;99.90;;;;;;5010142;28;20445;-66
2022/09/19 00:08:49;;;;;;;0.90;0.60;;;9.40;99.90;;;;;;5016530;28;20445;-66
2022/09/19 00:11:19;;;;;;;1.10;0.70;;;9.40;99.90;;;;;;5011666;28;20781;-66
2022/09/19 00:13:47;;;;;;;0.50;0.50;;;9.30;99.90;;;;;;5019032;28;20463;-66
2022/09/19 00:16:18;;;;;;;0.73;0.60;;;9.40;99.90;;;;;;5018247;28;20521;-66
2022/09/19 00:18:44;;;;;;;3.97;0.60;;;9.40;99.90;;;;;;5012173;28;20438;-66
2022/09/19 00:21:10;;;;;;;0.60;0.60;;;9.30;99.90;;;;;;5007144;28;20430;-66
2022/09/19 00:26:20;;;;;;;0.50;0.50;;;9.20;99.90;;;;;;5018723;28;20317;-66
2022/09/19 00:28:46;;;;;;;0.50;0.50;;;9.20;99.90;;;;;;5016561;28;20512;-66
2022/09/19 00:31:19;;;;;;;1.33;0.50;;;9.20;99.90;;;;;;5022609;28;20174;-66
2022/09/19 00:33:47;;;;;;;0.60;0.50;;;9.20;99.90;;;;;;5021654;28;20972;-67
2022/09/19 00:36:13;;;;;;;0.60;0.50;;;9.20;99.90;;;;;;5016348;28;20492;-66
2022/09/19 00:38:39;;;;;;;0.67;0.50;;;9.20;99.90;;;;;;5020609;28;20434;-66
2022/09/19 00:41:06;;;;;;;0.83;0.83;;;9.20;99.90;;;;;;5020146;28;20435;-66
2022/09/19 00:43:59;;;;;;;2.50;0.50;;;9.20;99.90;;;;;;5011474;28;20816;-66
2022/09/19 00:46:27;;;;;;;0.43;0.43;;;9.00;99.90;;;;;;5012691;28;20826;-66
2022/09/19 00:49:01;;;;;;;1.13;0.60;;;8.90;99.90;;;;;;5011112;28;20429;-66
2022/09/19 00:51:32;;;;;;;0.70;0.60;;;8.80;99.90;;;;;;5021067;28;20429;-66
2022/09/19 00:54:13;;;;;;;0.50;0.50;;;8.70;99.90;;;;;;5014995;28;20464;-66
2022/09/19 00:56:54;;;;;;;0.70;0.50;;;8.60;99.90;;;;;;5017536;28;20452;-66
2022/09/19 00:59:23;;;;;;;0.50;0.50;;;8.60;99.90;;;;;;5023960;28;20439;-66
2022/09/19 01:01:51;;;;;;;0.80;0.80;;;8.60;99.90;;;;;;5014283;28;20549;-66
2022/09/19 01:04:19;;;;;;;0.57;0.57;;;8.50;99.90;;;;;;5028079;28;20510;-66
2022/09/19 01:07:15;;;;;;;0.50;0.50;;;8.50;99.90;;;;;;5021029;28;20517;-66
2022/09/19 01:09:59;;;;;;;1.10;1.00;;;8.40;99.90;;;;;;5026723;28;20678;-66
2022/09/19 01:12:33;;;;;;;1.00;0.43;;;8.30;99.90;;;;;;5029695;28;20424;-66
2022/09/19 01:15:10;;;;;;;0.70;0.53;;;8.30;99.90;;;;;;5020101;28;20493;-66
2022/09/19 01:17:47;;;;;;;0.60;0.50;;;8.30;99.90;;;;;;5029430;28;20445;-66
2022/09/19 01:20:44;;;;;;;2.63;0.60;;;8.30;99.90;;;;;;5023960;28;20448;-66
2022/09/19 01:23:43;;;;;;;0.60;0.60;;;8.30;99.90;;;;;;5019690;28;20801;-66
2022/09/19 01:26:37;;;;;;;0.50;0.40;;;8.10;99.90;;;;;;5017564;28;20445;-66
2022/09/19 01:29:18;;;;;;;0.50;0.50;;;8.20;99.90;;;;;;5020873;28;20491;-66
2022/09/19 01:31:48;;;;;;;2.10;0.50;;;8.10;99.90;;;;;;5027858;28;20954;-66
2022/09/19 01:34:23;;;;;;;0.63;0.60;;;7.90;99.90;;;;;;5019612;28;20448;-66
2022/09/19 01:37:07;;;;;;;0.87;0.50;;;8.00;99.90;;;;;;5023210;28;20962;-66
2022/09/19 01:39:36;;;;;;;0.60;0.60;;;7.90;99.90;;;;;;5028674;28;20436;-66
2022/09/19 01:42:02;;;;;;;0.50;0.43;;;7.80;99.90;;;;;;5013965;28;20819;-66
2022/09/19 01:44:29;;;;;;;1.27;0.60;;;7.70;99.90;;;;;;5029570;28;20456;-66
2022/09/19 01:47:19;;;;;;;1.10;0.53;;;7.70;99.90;;;;;;5022230;28;20228;-66
2022/09/19 01:50:00;;;;;;;0.60;0.60;;;7.70;99.90;;;;;;5023979;28;20453;-66
2022/09/19 01:52:48;;;;;;;0.70;0.70;;;7.70;99.90;;;;;;5027003;28;20420;-66
2022/09/19 01:55:40;;;;;;;0.70;0.70;;;7.60;99.90;;;;;;5029399;28;20562;-66
2022/09/19 01:58:11;;;;;;;1.33;0.80;;;7.70;99.90;;;;;;5021422;28;20449;-66
2022/09/19 02:00:44;;;;;;;0.80;0.70;;;7.60;99.90;;;;;;5018331;28;20477;-67
2022/09/19 02:03:25;;;;;;;0.83;0.70;;;7.70;99.90;;;;;;5018371;28;20475;-66
2022/09/19 02:06:04;;;;;;;1.03;0.80;;;7.70;99.90;;;;;;5032842;28;20495;-66
2022/09/19 02:08:32;;;;;;;1.00;0.90;;;7.60;99.90;;;;;;5033284;28;20440;-66
2022/09/19 02:11:04;;;;;;;1.50;1.30;;;7.70;99.90;;;;;;5030448;28;20523;-66
2022/09/19 02:13:32;;;;;;;0.70;0.70;;;7.60;99.90;;;;;;5011820;28;20480;-67
2022/09/19 02:16:04;;;;;;;2.40;0.90;;;7.60;99.90;;;;;;5017418;28;20743;-66
2022/09/19 02:18:42;;;;;;;0.73;0.73;;;7.60;99.90;;;;;;5028130;28;20922;-66
2022/09/19 02:21:13;;;;;;;1.10;0.80;;;7.50;99.90;;;;;;5015325;28;20441;-66
2022/09/19 02:23:47;;;;;;;1.47;0.80;;;7.50;99.90;;;;;;5024735;28;20470;-66
2022/09/19 02:26:16;;;;;;;1.10;1.00;;;7.50;99.90;;;;;;5011356;28;21046;-66
2022/09/19 02:28:44;;;;;;;1.47;0.80;;;7.50;99.90;;;;;;5009910;28;20510;-66
2022/09/19 02:31:11;;;;;;;0.80;0.80;;;7.40;99.90;;;;;;5019296;28;20493;-66
2022/09/19 02:33:39;;;;;;;0.80;0.80;;;7.40;99.90;;;;;;5013253;28;20469;-66
2022/09/19 02:36:18;;;;;;;1.60;0.80;;;7.40;99.90;;;;;;5012305;28;20442;-66
2022/09/19 02:39:18;;;;;;;1.27;0.80;;;7.50;99.90;;;;;;5008285;28;20495;-66
2022/09/19 02:42:05;;;;;;;0.80;0.80;;;7.50;99.90;;;;;;5016100;28;20494;-66
2022/09/19 02:44:52;;;;;;;1.53;1.10;;;7.40;99.90;;;;;;5005031;28;20506;-66
2022/09/19 02:47:33;;;;;;;1.93;0.80;;;7.40;99.90;;;;;;5022020;28;20483;-66
2022/09/19 02:50:24;;;;;;;1.20;1.10;;;7.30;99.90;;;;;;5020166;28;20843;-66
2022/09/19 02:52:53;;;;;;;1.20;1.00;;;7.40;99.90;;;;;;5016667;28;20434;-66
2022/09/19 02:55:45;;;;;;;1.57;1.00;;;7.30;99.90;;;;;;5016278;28;20479;-66
2022/09/19 02:58:12;;;;;;;0.80;0.80;;;7.30;99.90;;;;;;5017347;28;20446;-66
2022/09/19 03:00:39;;;;;;;1.50;1.40;;;7.40;99.90;;;;;;5018902;28;20448;-66
2022/09/19 03:05:57;;;;;;;0.93;0.93;;;7.30;99.90;;;;;;5018917;28;20469;-66
2022/09/19 03:08:25;;;;;;;2.03;1.00;;;7.30;99.90;;;;;;5015099;28;20441;-66
2022/09/19 03:10:54;;;;;;;2.20;1.20;;;7.30;99.90;;;;;;5018408;28;20429;-66
2022/09/19 03:13:24;;;;;;;1.13;1.03;;;7.30;99.90;;;;;;5024788;28;20441;-66
2022/09/19 03:16:11;;;;;;;1.07;0.97;;;7.30;99.90;;;;;;5016125;28;20442;-66
2022/09/19 03:18:39;;;;;;;3.10;1.33;;;7.30;99.90;;;;;;5013700;28;20873;-66
2022/09/19 03:21:08;;;;;;;2.20;1.07;;;7.30;99.90;;;;;;5025279;28;20436;-66
2022/09/19 03:23:44;;;;;;;1.10;1.00;;;7.30;99.90;;;;;;5018872;28;20544;-66
2022/09/19 03:26:16;;;;;;;1.53;1.23;;;7.30;99.90;;;;;;5019220;28;20637;-66
2022/09/19 03:28:42;;;;;;;3.50;1.17;;;7.30;99.90;;;;;;5019952;28;20544;-67
2022/09/19 03:31:08;;;;;;;1.83;1.20;;;7.20;99.90;;;;;;5016829;28;20491;-66
2022/09/19 03:33:33;;;;;;;2.00;0.90;;;7.20;99.90;;;;;;5018224;28;20247;-66
2022/09/19 03:36:06;;;;;;;4.93;1.63;;;7.20;99.90;;;;;;5018895;28;20599;-66
2022/09/19 03:38:31;;;;;;;1.40;1.30;;;7.30;99.90;;;;;;5019339;28;20477;-66
2022/09/19 03:40:57;;;;;;;3.13;1.20;;;7.30;99.90;;;;;;5015873;28;20837;-67
2022/09/19 03:43:22;;;;;;;2.00;1.37;;;7.20;99.90;;;;;;5016318;28;20241;-66
2022/09/19 03:45:48;;;;;;;3.93;1.30;;;7.30;99.90;;;;;;5011719;28;20667;-66
2022/09/19 03:48:13;;;;;;;3.10;1.20;;;7.20;99.90;;;;;;5027834;28;20228;-66
2022/09/19 03:50:39;;;;;;;1.67;1.57;;;7.20;99.90;;;;;;5012070;28;21225;-66
2022/09/19 03:53:06;;;;;;;2.07;1.43;;;7.30;99.90;;;;;;5013448;28;20189;-66
2022/09/19 03:55:34;;;;;;;3.13;1.33;;;7.30;99.90;;;;;;5013078;28;20210;-66
2022/09/19 03:58:00;;;;;;;2.97;1.50;;;7.30;99.90;;;;;;5016134;28;20454;-66
2022/09/19 04:00:25;;;;;;;1.67;1.30;;;7.40;99.90;;;;;;5009623;28;20442;-66
2022/09/19 04:02:52;;;;;;;3.13;1.33;;;7.50;99.90;;;;;;5022780;28;20690;-66
2022/09/19 04:05:17;;;;;;;2.40;1.40;;;7.50;99.90;;;;;;5017756;28;20217;-66
2022/09/19 04:07:43;;;;;;;1.20;1.20;;;7.60;99.90;;;;;;5020762;28;20445;-66
2022/09/19 04:10:08;;;;;;;3.43;1.40;;;7.60;99.90;;;;;;5012810;28;20656;-66
2022/09/19 04:12:34;;;;;;;4.73;1.80;;;7.60;99.90;;;;;;5006377;28;20186;-66
2022/09/19 04:15:00;;;;;;;4.80;1.70;;;7.70;99.90;;;;;;5020742;28;20285;-66
2022/09/19 04:17:27;;;;;;;1.73;1.30;;;7.70;99.90;;;;;;5023600;28;20190;-67
2022/09/19 04:19:53;;;;;;;2.70;1.50;;;7.80;99.90;;;;;;5010264;28;20443;-66
2022/09/19 04:22:20;;;;;;;6.20;1.60;;;7.80;99.90;;;;;;5005056;28;20445;-66
2022/09/19 04:24:46;;;;;;;4.33;1.33;;;8.00;99.90;;;;;;5015301;28;20457;-66
2022/09/19 04:27:13;;;;;;;5.30;1.87;;;8.10;99.90;;;;;;5006960;28;20524;-66
2022/09/19 04:29:40;;;;;;;1.70;1.40;;;8.10;99.90;;;;;;5020393;28;20175;-66
2022/09/19 04:32:06;;;;;;;4.20;1.63;;;8.10;99.90;;;;;;5018983;28;20444;-66
2022/09/19 04:34:33;;;;;;;8.50;1.70;;;8.20;99.90;;;;;;5016389;28;20531;-66
2022/09/19 04:37:03;;;;;;;4.03;1.43;;;8.20;99.90;;;;;;5014892;28;20438;-66
2022/09/19 04:39:29;;;;;;;4.20;1.70;;;8.30;99.90;;;;;;5016662;28;20449;-66
2022/09/19 04:41:56;;;;;;;8.47;1.87;;;8.30;99.90;;;;;;5009046;28;20437;-66
2022/09/19 04:44:22;;;;;;;4.63;1.90;;;8.30;99.90;;;;;;5019021;28;20464;-67
2022/09/19 04:46:50;;;;;;;2.57;2.00;;;8.40;99.90;;;;;;5017756;28;20437;-66
2022/09/19 04:49:18;;;;;;;21.33;3.00;;;8.40;99.90;;;;;;5013350;28;20528;-66
2022/09/19 04:51:44;;;;;;;4.13;2.30;;;8.50;99.90;;;;;;5014303;28;20431;-66
2022/09/19 04:54:11;;;;;;;6.10;1.73;;;8.50;99.90;;;;;;5014686;28;20485;-66
2022/09/19 04:56:36;;;;;;;3.17;1.67;;;8.50;99.90;;;;;;5015523;28;20464;-66
2022/09/19 04:59:03;;;;;;;1.80;1.63;;;8.50;99.90;;;;;;5007765;28;20466;-66
2022/09/19 05:01:30;;;;;;;5.53;2.90;;;8.50;99.90;;;;;;5011129;28;20237;-66
2022/09/19 05:03:56;;;;;;;3.17;1.80;;;8.50;99.90;;;;;;5006976;28;20544;-66
2022/09/19 05:06:23;;;;;;;1.90;1.63;;;8.50;99.90;;;;;;5019874;28;20437;-66
2022/09/19 05:08:50;;;;;;;3.43;1.50;;;8.40;99.90;;;;;;5010904;28;20441;-67
2022/09/19 05:11:18;;;;;;;12.57;2.03;;;8.40;99.90;;;;;;5014024;28;20437;-66
2022/09/19 05:13:44;;;;;;;2.13;1.93;;;8.40;99.90;;;;;;5024662;28;20543;-66
2022/09/19 05:16:13;;;;;;;3.23;1.60;;;8.50;99.90;;;;;;5016533;28;20892;-66
2022/09/19 05:18:39;;;;;;;4.90;2.53;;;8.50;99.90;;;;;;5016613;28;20230;-66
2022/09/19 05:21:07;;;;;;;6.73;2.40;;;8.50;99.90;;;;;;5011785;28;20446;-66
2022/09/19 05:23:36;;;;;;;4.00;1.80;;;8.50;99.90;;;;;;5024602;28;20205;-66
2022/09/19 05:26:05;;;;;;;2.90;1.60;;;8.50;99.90;;;;;;5023583;28;20475;-66
2022/09/19 05:28:31;;;;;;;11.87;1.97;;;8.50;99.90;;;;;;5014799;28;20448;-66
2022/09/19 05:30:56;;;;;;;4.40;2.10;;;8.50;99.90;;;;;;5009714;28;20437;-66
2022/09/19 05:33:26;;;;;;;4.60;2.07;;;8.50;99.90;;;;;;5020992;28;20235;-66
2022/09/19 05:35:54;;;;;;;4.70;2.30;;;8.60;99.90;;;;;;5001001;28;20272;-66
2022/09/19 05:38:19;;;;;;;2.87;2.57;;;8.60;99.90;;;;;;5020725;28;20448;-67
2022/09/19 05:40:45;;;;;;;7.43;2.43;;;8.60;99.90;;;;;;5018321;28;20441;-66
2022/09/19 05:43:10;;;;;;;6.47;1.83;;;8.60;99.90;;;;;;5016529;28;20186;-67
2022/09/19 05:45:37;;;;;;;4.53;1.87;;;8.60;99.90;;;;;;5015973;28;20199;-67
2022/09/19 05:48:04;;;;;;;8.60;2.20;;;8.60;99.90;;;;;;5025909;28;20182;-67
2022/09/19 05:50:31;;;;;;;6.07;1.50;;;8.60;99.90;;;;;;5018394;28;20438;-69
2022/09/19 05:55:41;;;;;;;5.97;2.20;;;8.70;99.90;;;;;;5025017;28;20518;-67
2022/09/19 05:58:07;;;;;;;2.60;1.70;;;8.80;99.90;;;;;;5022353;28;20969;-68
2022/09/19 06:00:34;;;;;;;8.43;2.20;;;8.80;99.90;;;;;;5019539;28;20191;-68
2022/09/19 06:03:02;;;;;;;3.37;1.90;;;8.90;99.90;;;;;;5026206;28;20444;-67
2022/09/19 06:05:32;;;;;;;7.40;2.20;;;9.00;99.90;;;;;;5027075;28;20586;-68
2022/09/19 06:07:58;;;;;;;4.70;1.80;;;9.00;99.90;;;;;;5010658;28;20443;-68
2022/09/19 06:10:25;;;;;;;5.40;2.00;;;9.10;99.90;;;;;;5011411;28;20563;-68
2022/09/19 06:12:52;;;;;;;6.90;2.97;;;9.10;99.90;;;;;;5031198;28;20445;-67
2022/09/19 06:15:18;;;;;;;6.37;2.43;;;9.10;99.90;;;;;;5020743;28;20841;-68
2022/09/19 06:17:48;;;;;;;8.30;2.50;;;9.20;99.90;;;;;;5021112;28;20445;-66
2022/09/19 06:20:15;;;;;;;4.70;2.50;;;9.20;99.90;;;;;;5013322;28;20179;-68
2022/09/19 06:22:40;;;;;;;2.40;1.73;;;9.30;99.90;;;;;;5026981;28;20441;-67
2022/09/19 06:25:06;;;;;;;4.73;2.30;;;9.40;99.90;;;;;;5020476;28;20474;-67
2022/09/19 06:27:32;;;;;;;4.83;3.43;;;9.50;99.90;;;;;;5013578;28;20179;-67
2022/09/19 06:29:58;;;;;;;3.13;2.30;;;9.60;99.90;;;;;;4989468;28;20441;-67
2022/09/19 06:32:24;;;;;;;2.80;2.43;;;9.70;99.90;;;;;;4986730;28;20179;-67
2022/09/19 06:34:49;;;;;;;4.13;1.80;;;9.80;99.90;;;;;;5008391;28;20840;-66
2022/09/19 06:37:15;;;;;;;6.10;2.03;;;9.80;99.90;;;;;;5007368;28;20191;-66
2022/09/19 06:39:40;;;;;;;12.83;2.80;;;9.90;99.90;;;;;;5008670;28;20270;-67
2022/09/19 06:42:06;;;;;;;4.97;1.83;;;9.90;99.90;;;;;;5007962;28;20178;-66
2022/09/19 06:44:31;;;;;;;8.10;1.70;;;9.90;99.90;;;;;;5002473;28;20282;-67
2022/09/19 06:46:59;;;;;;;9.60;3.10;;;10.10;99.90;;;;;;5024071;28;20648;-67
2022/09/19 06:49:25;;;;;;;5.00;2.50;;;10.10;99.90;;;;;;5008223;28;20266;-67
2022/09/19 06:51:51;;;;;;;5.93;2.70;;;10.10;99.90;;;;;;5016675;28;20432;-66
2022/09/19 06:54:17;;;;;;;9.23;2.00;;;10.10;99.90;;;;;;5022804;28;20838;-67
2022/09/19 06:56:42;;;;;;;6.97;2.43;;;10.00;99.90;;;;;;5013765;28;20484;-66
2022/09/19 06:59:08;;;;;;;3.43;1.93;;;10.00;99.90;;;;;;5023110;28;20198;-67
2022/09/19 07:01:33;;;;;;;5.60;2.37;;;10.10;99.90;;;;;;5016748;28;20194;-67
2022/09/19 07:03:59;;;;;;;8.43;2.20;;;10.20;99.90;;;;;;5003845;28;20211;-68
2022/09/19 07:06:25;;;;;;;7.70;2.10;;;10.30;99.90;;;;;;4980437;28;20199;-67
2022/09/19 07:08:50;;;;;;;4.00;1.63;;;10.30;99.90;;;;;;5007504;28;20180;-67
2022/09/19 07:11:16;;;;;;;7.53;2.03;;;10.40;99.90;;;;;;5014976;28;20188;-67
2022/09/19 07:13:43;;;;;;;3.80;1.90;;;10.40;99.90;;;;;;5021960;28;20225;-67
2022/09/19 07:16:09;;;;;;;5.90;1.73;;;10.60;99.90;;;;;;5006220;28;20278;-68
2022/09/19 07:18:37;;;;;;;4.27;1.80;;;10.50;99.90;;;;;;5016321;28;20458;-68
2022/09/19 07:21:03;;;;;;;6.30;2.07;;;10.50;99.90;;;;;;5010719;28;20465;-68
2022/09/19 07:23:29;;;;;;;10.20;3.63;;;10.60;99.90;;;;;;5006609;28;21099;-69
2022/09/19 07:25:55;;;;;;;5.63;3.40;;;10.80;99.90;;;;;;5007295;28;20555;-70
2022/09/19 07:28:21;;;;;;;6.50;2.10;;;10.90;99.90;;;;;;5014466;28;20190;-70
2022/09/19 07:30:48;;;;;;;3.27;1.43;;;11.20;99.90;;;;;;5009091;28;20460;-69
2022/09/19 07:33:15;;;;;;;2.13;1.93;;;11.40;99.90;;;;;;5015415;28;20511;-70
2022/09/19 07:35:41;;;;;;;4.30;2.00;;;11.50;99.90;;;;;;5007837;28;20435;-69
2022/09/19 07:38:15;;;;;;;4.33;2.50;;;11.50;99.90;;;;;;5011291;28;20453;-69
2022/09/19 07:40:41;;;;;;;6.53;1.80;;;11.50;99.90;;;;;;5009319;28;20442;-69
2022/09/19 07:43:07;;;;;;;11.87;4.17;;;11.50;99.90;;;;;;5018363;28;20809;-68
2022/09/19 07:45:35;;;;;;;2.53;1.60;;;11.50;99.90;;;;;;5002711;28;20533;-69
2022/09/19 07:48:01;;;;;;;3.63;2.00;;;11.40;99.90;;;;;;5007567;28;20444;-69
2022/09/19 07:50:26;;;;;;;6.67;2.03;;;11.50;99.90;;;;;;5018744;28;20461;-68
2022/09/19 07:53:15;;;;;;;5.03;1.80;;;11.20;99.90;;;;;;5016054;28;20228;-67
2022/09/19 07:55:41;;;;;;;5.47;2.27;;;11.20;99.90;;;;;;5007081;28;20684;-68
2022/09/19 07:58:10;;;;;;;9.63;2.30;;;11.20;99.90;;;;;;5020857;28;20446;-69
2022/09/19 08:00:36;;;;;;;7.80;2.30;;;11.30;99.90;;;;;;5016517;28;20434;-68
2022/09/19 08:03:15;;;;;;;9.67;2.70;;;11.50;99.90;;;;;;5011214;28;20841;-68
2022/09/19 08:05:43;;;;;;;8.60;3.63;;;11.60;99.90;;;;;;5009200;28;20843;-69
2022/09/19 08:08:10;;;;;;;8.33;2.93;;;11.40;99.90;;;;;;5004212;28;20521;-70
2022/09/19 08:10:40;;;;;;;5.87;3.00;;;11.50;99.90;;;;;;5018053;28;20436;-68
2022/09/19 08:13:07;;;;;;;5.67;2.73;;;11.50;99.90;;;;;;5009264;28;20434;-68
2022/09/19 08:15:34;;;;;;;9.33;2.13;;;11.50;99.90;;;;;;5007796;28;20472;-68
2022/09/19 08:18:12;;;;;;;7.50;2.10;;;11.70;99.90;;;;;;5012827;28;20459;-69
2022/09/19 08:20:38;;;;;;;6.67;3.37;;;11.90;99.90;;;;;;5008820;28;20515;-69
2022/09/19 08:23:21;;;;;;;5.57;2.20;;;12.00;99.90;;;;;;5010988;28;20862;-68
2022/09/19 08:25:50;;;;;;;8.23;2.57;;;12.20;99.90;;;;;;5006717;28;20203;-68
2022/09/19 08:28:17;;;;;;;3.10;2.30;;;12.30;99.90;;;;;;5014754;28;20527;-69
2022/09/19 08:30:43;;;;;;;8.50;2.10;;;12.50;99.90;;;;;;5006911;28;20454;-69
2022/09/19 08:33:10;;;;;;;5.40;2.40;;;12.80;99.90;;;;;;5011124;28;20447;-70
2022/09/19 08:35:37;;;;;;;5.93;3.40;;;12.90;99.90;;;;;;5003770;28;20274;-69
2022/09/19 08:38:05;;;;;;;14.57;3.27;;;13.10;99.90;;;;;;5012766;28;20531;-69
2022/09/19 08:40:39;;;;;;;4.90;2.50;;;13.40;99.90;;;;;;5018425;28;20444;-68
2022/09/19 08:43:04;;;;;;;9.83;2.73;;;13.60;99.90;;;;;;5011563;28;20437;-69
2022/09/19 08:45:40;;;;;;;12.17;2.10;;;13.80;99.90;;;;;;5002511;28;20464;-71
2022/09/19 08:48:13;;;;;;;10.23;2.60;;;13.40;99.90;;;;;;5003280;28;20170;-68
2022/09/19 08:50:43;;;;;;;10.37;2.53;;;13.20;99.90;;;;;;5007553;28;20512;-69
2022/09/19 08:53:16;;;;;;;8.13;2.30;;;13.30;99.90;;;;;;5008857;28;20512;-69
2022/09/19 08:55:43;;;;;;;9.00;2.70;;;13.50;99.90;;;;;;5002271;28;21104;-68
2022/09/19 08:58:18;;;;;;;6.57;4.03;;;13.50;99.90;;;;;;5000944;28;20449;-69
2022/09/19 09:00:45;;;;;;;4.73;2.60;;;13.60;99.90;;;;;;5017852;28;20480;-68
2022/09/19 09:03:17;;;;;;;9.83;2.47;;;13.80;99.90;;;;;;5006607;28;20442;-69
2022/09/19 09:06:21;;;;;;;15.80;2.80;;;13.50;99.90;;;;;;5010477;28;20464;-69
2022/09/19 09:09:17;;;;;;;8.17;2.40;;;13.20;99.90;;;;;;5020540;28;20459;-68
2022/09/19 09:11:55;;;;;;;3.77;2.83;;;13.40;99.90;;;;;;5010269;28;20441;-69
2022/09/19 09:14:29;;;;;;;8.27;2.80;;;13.20;99.90;;;;;;5014308;28;21452;-69
2022/09/19 09:17:19;;;;;;;4.13;2.37;;;13.20;99.90;;;;;;5012283;28;20895;-69
2022/09/19 09:20:04;;;;;;;4.47;2.37;;;13.30;99.90;;;;;;5019118;28;20938;-69
2022/09/19 09:22:39;;;;;;;4.53;1.93;;;13.20;99.90;;;;;;5017176;28;21168;-69
2022/09/19 09:25:29;;;;;;;6.80;2.60;;;13.10;99.90;;;;;;5008086;28;20519;-68
2022/09/19 09:28:11;;;;;;;6.87;3.80;;;13.20;99.90;;;;;;5025307;28;21096;-71
2022/09/19 09:30:44;;;;;;;3.57;2.13;;;13.50;99.90;;;;;;5020143;28;20479;-69
2022/09/19 09:33:23;;;;;;;6.87;3.90;;;13.70;99.90;;;;;;5016602;28;20460;-70
2022/09/19 09:35:57;;;;;;;2.60;2.17;;;13.70;99.90;;;;;;5010156;28;20977;-70
2022/09/19 09:38:33;;;;;;;7.53;2.83;;;13.30;99.90;;;;;;5016066;28;20440;-70
2022/09/19 09:44:15;;;;;;;7.53;1.97;;;13.60;99.90;;;;;;5008103;28;20470;-69
2022/09/19 09:47:10;;;;;;;6.73;3.70;;;14.00;99.90;;;;;;5011026;28;20812;-69
2022/09/19 09:49:36;;;;;;;5.57;3.30;;;14.50;99.90;;;;;;5023258;28;20529;-70
2022/09/19 09:52:17;;;;;;;7.20;3.23;;;14.40;99.90;;;;;;5016365;28;20535;-68
2022/09/19 09:58:11;;;;;;;7.80;2.70;;;14.70;99.90;;;;;;5015566;28;20523;-68
2022/09/19 10:03:49;;;;;;;5.17;2.00;;;14.60;99.90;;;;;;5014099;28;20476;-68
2022/09/19 10:06:38;;;;;;;2.80;1.70;;;14.40;99.90;;;;;;5021125;28;20503;-68
2022/09/19 10:09:14;;;;;;;5.60;2.20;;;14.00;99.90;;;;;;5020189;28;20937;-68
2022/09/19 10:11:56;;;;;;;12.47;2.97;;;13.80;99.90;;;;;;5013276;28;20429;-69
2022/09/19 10:14:25;;;;;;;6.20;2.13;;;14.10;99.90;;;;;;5017544;28;20833;-68
2022/09/19 10:16:53;;;;;;;5.50;2.43;;;14.50;99.90;;;;;;5020812;28;20497;-69
2022/09/19 10:19:33;;;;;;;6.33;2.50;;;14.30;99.90;;;;;;5024652;28;20460;-69
2022/09/19 10:21:59;;;;;;;4.17;3.07;;;14.50;99.90;;;;;;5001263;28;20499;-71
2022/09/19 10:24:46;;;;;;;4.90;2.30;;;14.70;99.90;;;;;;5003150;28;20800;-67
2022/09/19 10:27:19;;;;;;;5.53;2.00;;;14.90;99.90;;;;;;5014589;28;20843;-66
2022/09/19 10:30:18;;;;;;;3.60;1.73;;;15.10;99.90;;;;;;5016501;28;20523;-67
2022/09/19 10:32:45;;;;;;;2.60;1.90;;;15.80;99.90;;;;;;5014518;28;20438;-67
2022/09/19 10:35:27;;;;;;;10.30;5.33;;;15.80;99.90;;;;;;5008374;28;21009;-70
2022/09/19 10:38:10;;;;;;;5.37;2.03;;;16.40;99.90;;;;;;5020253;28;20535;-68
2022/09/19 10:40:36;;;;;;;3.17;2.03;;;17.50;99.90;;;;;;5005724;28;20526;-68
2022/09/19 10:43:02;;;;;;;3.17;2.40;;;17.60;99.90;;;;;;5006182;28;20480;-68
2022/09/19 10:45:31;;;;;;;5.47;1.80;;;17.80;99.90;;;;;;5000797;28;20473;-71
2022/09/19 10:48:10;;;;;;;3.00;1.63;;;17.60;99.90;;;;;;5004472;28;20187;-64
2022/09/19 10:50:45;;;;;;;3.60;1.70;;;17.80;99.90;;;;;;5005757;28;20438;-66
2022/09/19 10:53:19;;;;;;;5.00;1.70;;;19.30;99.90;;;;;;5002711;28;20545;-66
2022/09/19 10:55:46;;;;;;;2.47;1.67;;;19.10;99.90;;;;;;5003264;28;20442;-64
2022/09/19 10:58:23;;;;;;;4.67;1.70;;;18.60;99.90;;;;;;5001441;28;20533;-65
2022/09/19 11:00:55;;;;;;;3.87;1.60;;;17.50;99.90;;;;;;5008666;28;20445;-66
2022/09/19 11:03:23;;;;;;;2.17;1.90;;;16.60;99.90;;;;;;5012919;28;20438;-65
2022/09/19 11:06:03;;;;;;;4.10;2.00;;;16.00;99.90;;;;;;5011456;28;20515;-65
2022/09/19 11:08:30;;;;;;;4.17;2.10;;;15.90;99.90;;;;;;5006495;28;20799;-66
2022/09/19 11:10:56;;;;;;;5.43;1.83;;;16.00;99.90;;;;;;5016986;28;20449;-65
2022/09/19 11:13:25;;;;;;;5.73;1.70;;;16.60;99.90;;;;;;5014679;28;21021;-65
2022/09/19 11:16:06;;;;;;;2.77;1.90;;;17.80;99.90;;;;;;5011999;28;20771;-65
2022/09/19 11:18:58;;;;;;;3.27;1.70;;;17.80;99.90;;;;;;5008522;28;20492;-65
2022/09/19 11:21:45;;;;;;;2.50;1.90;;;17.20;99.90;;;;;;5008555;28;20443;-65
2022/09/19 11:24:34;;;;;;;4.20;1.40;;;16.80;99.90;;;;;;5003241;28;20472;-65
2022/09/19 11:27:30;;;;;;;2.40;1.90;;;16.60;99.90;;;;;;5009456;28;20502;-66
2022/09/19 11:30:24;;;;;;;1.87;1.77;;;16.70;99.90;;;;;;5017762;28;21000;-66
2022/09/19 11:32:56;;;;;;;3.77;3.10;;;16.20;99.90;;;;;;5017844;28;21436;-65
2022/09/19 11:35:28;;;;;;;1.93;1.73;;;16.80;99.90;;;;;;5011087;28;20930;-65
2022/09/19 11:38:28;;;;;;;4.13;2.00;;;17.00;99.90;;;;;;5021852;28;20432;-65
2022/09/19 11:41:28;;;;;;;1.57;1.30;;;16.90;99.90;;;;;;5001847;28;20484;-65
2022/09/19 11:44:16;;;;;;;1.90;1.10;;;16.40;99.90;;;;;;5015799;28;20456;-66
2022/09/19 11:47:06;;;;;;;2.13;1.20;;;16.20;99.90;;;;;;5007672;28;20513;-65
2022/09/19 11:49:59;;;;;;;1.50;1.40;;;15.90;99.90;;;;;;5022761;28;20429;-66
2022/09/19 11:52:25;;;;;;;1.90;1.30;;;15.80;99.90;;;;;;5006751;28;20524;-66
2022/09/19 11:55:19;;;;;;;4.40;2.40;;;15.50;99.90;;;;;;5006960;28;20466;-66
2022/09/19 11:58:09;;;;;;;2.70;1.43;;;15.40;99.90;;;;;;5006235;28;20433;-65
2022/09/19 12:00:54;;;;;;;7.50;1.73;;;15.30;99.90;;;;;;5014342;28;20978;-65
2022/09/19 12:03:59;;;;;;;1.60;1.20;;;15.40;99.90;;;;;;5009940;28;20492;-66
2022/09/19 12:06:47;;;;;;;4.20;2.10;;;15.20;99.90;;;;;;5013318;28;20468;-65
2022/09/19 12:09:19;;;;;;;2.27;1.60;;;15.20;99.90;;;;;;5004579;28;20426;-66
2022/09/19 12:11:50;;;;;;;3.60;1.70;;;15.20;99.90;;;;;;5010300;28;21085;-65
2022/09/19 12:14:22;;;;;;;6.63;1.90;;;15.30;99.90;;;;;;5015175;28;20457;-65
2022/09/19 12:16:53;;;;;;;4.20;2.07;;;15.40;99.90;;;;;;5014080;28;20953;-66
2022/09/19 12:19:25;;;;;;;2.70;2.50;;;15.30;99.90;;;;;;5012985;28;20437;-66
2022/09/19 12:22:06;;;;;;;4.20;1.50;;;15.10;99.90;;;;;;5017520;28;20434;-66
2022/09/19 12:24:53;;;;;;;3.70;1.60;;;15.10;99.90;;;;;;5010839;28;20962;-66
2022/09/19 12:27:18;;;;;;;1.60;1.37;;;15.20;99.90;;;;;;5016386;28;20443;-65
2022/09/19 12:29:53;;;;;;;2.30;1.60;;;15.00;99.90;;;;;;5017748;28;20441;-65
2022/09/19 12:32:26;;;;;;;3.20;2.03;;;14.80;99.90;;;;;;5009114;28;20643;-66
2022/09/19 12:35:07;;;;;;;2.80;1.40;;;15.00;99.90;;;;;;5010751;28;20465;-66
2022/09/19 12:37:51;;;;;;;2.60;1.70;;;15.50;99.90;;;;;;5008455;28;20955;-66
2022/09/19 12:40:39;;;;;;;7.47;2.63;;;17.00;99.90;;;;;;5016089;28;20449;-67
2022/09/19 12:43:23;;;;;;;2.83;1.30;;;18.30;99.90;;;;;;5010523;28;20478;-66
2022/09/19 12:46:09;;;;;;;2.80;1.60;;;18.20;99.90;;;;;;5009293;28;20497;-66
2022/09/19 12:48:45;;;;;;;2.03;1.83;;;18.30;99.90;;;;;;5018495;28;20442;-67
2022/09/19 12:51:18;;;;;;;6.40;1.60;;;18.00;99.90;;;;;;5006154;28;20784;-66
2022/09/19 12:53:50;;;;;;;2.43;1.30;;;17.00;99.90;;;;;;5008387;28;20469;-67
2022/09/19 12:56:39;;;;;;;4.20;2.07;;;16.60;99.90;;;;;;5003295;28;21180;-66
2022/09/19 12:59:18;;;;;;;5.80;1.50;;;16.00;99.90;;;;;;5006274;28;20452;-66
2022/09/19 13:01:48;;;;;;;1.30;1.20;;;15.80;99.90;;;;;;5017021;28;20907;-66
2022/09/19 13:04:46;;;;;;;1.97;1.33;;;15.90;99.90;;;;;;5003662;28;20469;-66
2022/09/19 13:07:31;;;;;;;3.53;1.80;;;15.90;99.90;;;;;;5012555;28;20440;-66
2022/09/19 13:10:19;;;;;;;2.60;1.60;;;16.00;99.90;;;;;;5015814;28;20527;-66
2022/09/19 13:13:08;;;;;;;5.00;2.73;;;16.30;99.90;;;;;;5006606;28;20440;-66
2022/09/19 13:15:54;;;;;;;6.83;1.97;;;16.70;99.90;;;;;;5005966;28;20539;-66
2022/09/19 13:23:58;;;;;;;4.00;1.90;;;16.00;99.90;;;;;;4996040;28;20455;-69
2022/09/19 13:26:35;;;;;;;3.10;1.50;;;16.00;99.90;;;;;;5001208;28;20469;-66
2022/09/19 13:29:05;;;;;;;3.03;1.27;;;16.00;99.90;;;;;;4998368;28;20432;-66
2022/09/19 13:31:50;;;;;;;3.90;1.90;;;16.00;99.90;;;;;;5013480;28;21345;-66
2022/09/19 13:35:11;;;;;;;4.23;1.87;;;16.00;99.90;;;;;;5006094;28;20886;-65
2022/09/19 13:37:36;;;;;;;3.30;1.57;;;16.10;99.90;;;;;;4980935;28;20473;-66
2022/09/19 13:40:38;;;;;;;1.87;1.47;;;16.40;99.90;;;;;;5022548;28;21000;-67
2022/09/19 13:43:10;;;;;;;3.00;1.70;;;17.50;99.90;;;;;;5009020;28;20670;-66
2022/09/19 13:45:48;;;;;;;1.73;1.57;;;18.40;99.90;;;;;;5006235;28;20496;-68